Time;durP1;ratioP1;P1;durP2;ratioP2;P2;SDS_P1;SDS_P2;PMS_P1;PMS_P2;Temp;Humidity;BMP_temperature;BMP_pressure;BME280_temperature;BME280_humidity;BME280_pressure;Samples;Min_cycle;Max_cycle;Signal;HPM_P1;HPM_P2
2023/12/09 00:00:41;;;;;;;43.00;15.85;;;;;;;;;;5030274;28;20203;-74
2023/12/09 00:03:08;;;;;;;39.92;15.25;;;;;;;;;;5020907;28;20187;-74
2023/12/09 00:05:34;;;;;;;46.47;15.82;;;;;;;;;;5048016;28;20685;-74
2023/12/09 00:07:59;;;;;;;54.33;15.82;;;;;;;;;;5017949;28;20301;-74
2023/12/09 00:10:24;;;;;;;41.17;14.97;;;;;;;;;;5027441;28;20214;-74
2023/12/09 00:12:50;;;;;;;39.97;15.53;;;;;;;;;;5017654;28;20273;-73
2023/12/09 00:15:16;;;;;;;47.17;16.83;;;;;;;;;;5031339;28;20225;-74
2023/12/09 00:17:41;;;;;;;46.78;16.13;;;;;;;;;;5026715;28;20635;-74
2023/12/09 00:20:08;;;;;;;31.75;15.20;;;;;;;;;;5015832;28;20189;-74
2023/12/09 00:22:33;;;;;;;38.67;15.57;;;;;;;;;;5024950;28;20389;-74
2023/12/09 00:24:59;;;;;;;51.60;15.70;;;;;;;;;;5023168;28;20183;-74
2023/12/09 00:27:25;;;;;;;39.47;16.30;;;;;;;;;;5023319;28;20251;-74
2023/12/09 00:29:50;;;;;;;43.00;14.55;;;;;;;;;;5022315;28;20495;-75
2023/12/09 00:32:15;;;;;;;35.22;13.75;;;;;;;;;;5039947;28;20542;-74
2023/12/09 00:34:41;;;;;;;44.22;13.98;;;;;;;;;;5024663;28;20231;-73
2023/12/09 00:37:06;;;;;;;40.20;14.52;;;;;;;;;;5017032;28;20587;-74
2023/12/09 00:39:32;;;;;;;34.85;13.60;;;;;;;;;;5034669;28;20293;-74
2023/12/09 00:41:57;;;;;;;39.33;14.02;;;;;;;;;;5039823;28;20198;-74
2023/12/09 00:44:23;;;;;;;36.38;14.23;;;;;;;;;;5030646;28;20255;-74
2023/12/09 00:46:48;;;;;;;39.70;13.38;;;;;;;;;;5013760;28;20183;-74
2023/12/09 00:49:14;;;;;;;35.60;13.02;;;;;;;;;;5011992;28;20306;-74
2023/12/09 00:51:39;;;;;;;37.97;13.05;;;;;;;;;;5029562;28;20208;-74
2023/12/09 00:54:04;;;;;;;43.53;13.82;;;;;;;;;;5030613;28;20523;-74
2023/12/09 00:56:30;;;;;;;40.25;14.38;;;;;;;;;;5037510;28;20198;-74
2023/12/09 00:58:55;;;;;;;41.42;13.75;;;;;;;;;;5034531;28;20649;-73
2023/12/09 01:01:21;;;;;;;35.75;13.18;;;;;;;;;;5031328;28;20189;-74
2023/12/09 01:03:46;;;;;;;47.72;13.63;;;;;;;;;;5025982;28;20336;-73
2023/12/09 01:06:11;;;;;;;31.10;12.77;;;;;;;;;;5036522;28;20194;-74
2023/12/09 01:08:37;;;;;;;51.65;13.82;;;;;;;;;;5028517;28;20194;-73
2023/12/09 01:11:02;;;;;;;42.45;14.40;;;;;;;;;;5031685;28;20212;-73
2023/12/09 01:13:30;;;;;;;50.67;14.43;;;;;;;;;;5034328;28;20280;-73
2023/12/09 01:15:55;;;;;;;43.97;13.10;;;;;;;;;;5032966;28;20226;-73
2023/12/09 01:18:21;;;;;;;49.13;14.00;;;;;;;;;;5030713;28;20622;-73
2023/12/09 01:20:46;;;;;;;37.30;13.23;;;;;;;;;;5028623;28;20204;-73
2023/12/09 01:23:13;;;;;;;30.98;12.80;;;;;;;;;;5006769;28;20209;-73
2023/12/09 01:25:38;;;;;;;39.90;13.43;;;;;;;;;;5025521;28;20219;-74
2023/12/09 01:28:04;;;;;;;41.67;12.88;;;;;;;;;;5026840;28;20269;-73
2023/12/09 01:30:29;;;;;;;37.58;14.48;;;;;;;;;;5033217;28;20193;-73
2023/12/09 01:32:55;;;;;;;39.92;14.00;;;;;;;;;;5033636;28;20205;-73
2023/12/09 01:35:20;;;;;;;41.53;14.95;;;;;;;;;;5025341;28;20198;-72
2023/12/09 01:37:45;;;;;;;40.83;13.75;;;;;;;;;;5030470;28;20284;-73
2023/12/09 01:40:15;;;;;;;40.65;13.20;;;;;;;;;;5043383;28;20277;-73
2023/12/09 01:42:42;;;;;;;43.97;14.27;;;;;;;;;;5030544;28;20198;-73
2023/12/09 01:45:08;;;;;;;36.28;12.95;;;;;;;;;;5025774;28;20256;-73
2023/12/09 01:47:35;;;;;;;44.63;14.00;;;;;;;;;;5014964;28;20194;-73
2023/12/09 01:50:02;;;;;;;39.08;13.57;;;;;;;;;;5036243;28;20327;-73
2023/12/09 01:52:30;;;;;;;43.58;14.38;;;;;;;;;;5033215;28;20259;-73
2023/12/09 01:54:55;;;;;;;35.42;13.20;;;;;;;;;;5014934;28;20236;-73
2023/12/09 01:57:21;;;;;;;39.20;13.38;;;;;;;;;;5035233;28;20656;-73
2023/12/09 01:59:46;;;;;;;40.10;13.38;;;;;;;;;;5030514;28;20656;-73
2023/12/09 02:02:12;;;;;;;43.33;12.80;;;;;;;;;;5027846;28;20277;-73
2023/12/09 02:04:37;;;;;;;40.08;13.15;;;;;;;;;;5026855;28;20234;-73
2023/12/09 02:07:03;;;;;;;48.80;14.68;;;;;;;;;;5031780;28;20201;-73
2023/12/09 02:09:28;;;;;;;38.35;13.15;;;;;;;;;;5038555;28;20306;-73
2023/12/09 02:12:11;;;;;;;40.80;12.70;;;;;;;;;;5027226;28;20198;-74
2023/12/09 02:15:01;;;;;;;42.22;13.63;;;;;;;;;;5032257;28;20186;-74
2023/12/09 02:17:33;;;;;;;35.53;12.70;;;;;;;;;;5024797;28;20226;-73
2023/12/09 02:20:00;;;;;;;42.88;13.18;;;;;;;;;;5027933;28;20202;-74
2023/12/09 02:22:26;;;;;;;42.50;12.63;;;;;;;;;;5031219;28;20655;-73
2023/12/09 02:24:51;;;;;;;38.50;12.55;;;;;;;;;;5019557;28;20273;-73
2023/12/09 02:27:55;;;;;;;38.78;12.90;;;;;;;;;;5029963;28;20193;-73
2023/12/09 02:30:33;;;;;;;35.20;12.50;;;;;;;;;;4986106;28;20237;-74
2023/12/09 02:33:00;;;;;;;44.35;13.60;;;;;;;;;;5015979;28;20722;-73
2023/12/09 02:35:27;;;;;;;39.80;13.55;;;;;;;;;;5028065;28;20715;-74
2023/12/09 02:37:54;;;;;;;35.17;13.10;;;;;;;;;;5030411;28;20641;-73
2023/12/09 02:40:20;;;;;;;38.70;12.43;;;;;;;;;;5035654;28;20250;-74
2023/12/09 02:42:46;;;;;;;38.05;12.30;;;;;;;;;;5015523;28;20567;-74
2023/12/09 02:45:12;;;;;;;37.40;12.55;;;;;;;;;;5011276;28;20592;-74
2023/12/09 02:47:37;;;;;;;36.85;13.45;;;;;;;;;;5015200;28;20209;-73
2023/12/09 02:50:03;;;;;;;35.85;13.90;;;;;;;;;;4998468;28;20187;-74
2023/12/09 02:52:29;;;;;;;48.78;13.70;;;;;;;;;;5031977;28;20205;-74
2023/12/09 02:54:54;;;;;;;42.40;13.30;;;;;;;;;;5031870;28;20209;-73
2023/12/09 02:57:20;;;;;;;40.70;12.60;;;;;;;;;;5032052;28;20197;-72
2023/12/09 02:59:45;;;;;;;44.30;13.02;;;;;;;;;;5027933;28;20182;-73
2023/12/09 03:02:11;;;;;;;40.00;13.45;;;;;;;;;;5025333;28;20657;-73
2023/12/09 03:04:36;;;;;;;37.20;13.63;;;;;;;;;;5030882;28;20576;-73
2023/12/09 03:07:01;;;;;;;46.15;13.57;;;;;;;;;;5031200;28;20198;-73
2023/12/09 03:09:27;;;;;;;37.13;12.57;;;;;;;;;;5038076;28;20205;-73
2023/12/09 03:11:52;;;;;;;35.83;12.13;;;;;;;;;;5030069;28;20190;-73
2023/12/09 03:14:18;;;;;;;39.03;13.27;;;;;;;;;;5039159;28;20319;-73
2023/12/09 03:16:43;;;;;;;42.83;13.23;;;;;;;;;;5021482;28;20333;-72
2023/12/09 03:19:09;;;;;;;33.75;11.65;;;;;;;;;;5023554;28;20201;-72
2023/12/09 03:21:34;;;;;;;45.45;12.45;;;;;;;;;;5033339;28;20187;-72
2023/12/09 03:24:00;;;;;;;31.83;12.10;;;;;;;;;;5025148;28;20206;-72
2023/12/09 03:26:25;;;;;;;44.42;12.38;;;;;;;;;;5031240;28;20273;-72
2023/12/09 03:28:51;;;;;;;37.28;12.65;;;;;;;;;;5033274;28;20587;-72
2023/12/09 03:31:17;;;;;;;31.15;11.90;;;;;;;;;;5029103;28;20194;-72
2023/12/09 03:33:43;;;;;;;36.30;11.82;;;;;;;;;;5028364;28;20206;-72
2023/12/09 03:36:13;;;;;;;42.70;13.77;;;;;;;;;;5029928;28;20526;-72
2023/12/09 03:38:39;;;;;;;42.55;13.32;;;;;;;;;;5034675;28;20186;-73
2023/12/09 03:41:05;;;;;;;41.05;13.13;;;;;;;;;;5029920;28;20182;-73
2023/12/09 03:43:31;;;;;;;36.05;14.07;;;;;;;;;;5017855;28;20191;-73
2023/12/09 03:45:58;;;;;;;36.90;12.77;;;;;;;;;;5037507;28;20671;-73
2023/12/09 03:48:23;;;;;;;33.08;13.15;;;;;;;;;;5028039;28;20190;-72
2023/12/09 03:50:49;;;;;;;35.30;13.32;;;;;;;;;;5035369;28;20614;-73
2023/12/09 03:53:14;;;;;;;37.80;13.20;;;;;;;;;;5029198;28;20251;-73
2023/12/09 03:55:39;;;;;;;44.67;13.82;;;;;;;;;;5025364;28;20618;-73
2023/12/09 03:58:06;;;;;;;41.25;14.02;;;;;;;;;;5017308;28;20701;-73
2023/12/09 04:00:32;;;;;;;36.88;12.57;;;;;;;;;;5030618;28;20186;-73
2023/12/09 04:02:57;;;;;;;32.22;11.30;;;;;;;;;;5032549;28;20184;-73
2023/12/09 04:05:22;;;;;;;32.78;11.77;;;;;;;;;;5017683;28;20185;-73
2023/12/09 04:07:48;;;;;;;38.38;11.63;;;;;;;;;;5026977;28;20198;-73
2023/12/09 04:10:13;;;;;;;42.33;12.38;;;;;;;;;;5045479;28;20194;-73
2023/12/09 04:12:40;;;;;;;38.23;11.97;;;;;;;;;;5018045;28;20288;-72
2023/12/09 04:15:06;;;;;;;40.53;11.90;;;;;;;;;;5028005;28;20252;-73
2023/12/09 04:17:32;;;;;;;32.67;10.77;;;;;;;;;;5033430;28;20628;-73
2023/12/09 04:19:57;;;;;;;38.83;11.83;;;;;;;;;;5019058;28;20218;-72
2023/12/09 04:22:23;;;;;;;39.63;11.33;;;;;;;;;;5030833;28;20189;-72
2023/12/09 04:24:48;;;;;;;39.60;10.57;;;;;;;;;;5035305;28;20571;-73
2023/12/09 04:27:14;;;;;;;40.67;11.93;;;;;;;;;;5036826;28;20730;-73
2023/12/09 04:29:39;;;;;;;30.13;11.45;;;;;;;;;;5035074;28;20193;-73
2023/12/09 04:32:05;;;;;;;32.38;10.27;;;;;;;;;;5022353;28;20523;-73
2023/12/09 04:34:30;;;;;;;36.35;10.18;;;;;;;;;;5031388;28;20267;-73
2023/12/09 04:36:56;;;;;;;36.87;11.10;;;;;;;;;;5027240;28;20272;-73
2023/12/09 04:39:22;;;;;;;39.85;10.77;;;;;;;;;;5024725;28;20719;-73
2023/12/09 04:41:47;;;;;;;42.17;9.70;;;;;;;;;;5020700;28;20197;-72
2023/12/09 04:44:13;;;;;;;34.83;8.93;;;;;;;;;;5009643;28;20179;-72
2023/12/09 04:46:38;;;;;;;34.38;8.52;;;;;;;;;;5036701;28;20276;-72
2023/12/09 04:49:04;;;;;;;27.20;9.07;;;;;;;;;;5031575;28;20896;-73
2023/12/09 04:51:29;;;;;;;27.73;8.85;;;;;;;;;;5029780;28;20194;-72
2023/12/09 04:53:55;;;;;;;33.80;8.63;;;;;;;;;;5031193;28;20206;-72
2023/12/09 04:56:20;;;;;;;24.17;7.45;;;;;;;;;;5012539;28;20193;-72
2023/12/09 04:58:46;;;;;;;28.02;8.23;;;;;;;;;;5037133;28;20193;-72
2023/12/09 05:01:11;;;;;;;36.63;8.43;;;;;;;;;;5028859;28;20314;-72
2023/12/09 05:03:37;;;;;;;34.55;7.88;;;;;;;;;;5034998;28;20233;-73
2023/12/09 05:06:04;;;;;;;19.55;7.30;;;;;;;;;;5030203;28;20212;-72
2023/12/09 05:08:30;;;;;;;32.25;7.72;;;;;;;;;;5028641;28;20205;-72
2023/12/09 05:10:55;;;;;;;23.60;7.60;;;;;;;;;;5043916;28;20274;-72
2023/12/09 05:13:21;;;;;;;32.67;8.55;;;;;;;;;;5031010;28;20634;-73
2023/12/09 05:15:46;;;;;;;25.03;8.03;;;;;;;;;;5041760;28;20260;-72
2023/12/09 05:18:12;;;;;;;25.40;7.30;;;;;;;;;;5033808;28;20225;-73
2023/12/09 05:20:38;;;;;;;25.70;8.00;;;;;;;;;;5043861;28;20283;-73
2023/12/09 05:23:03;;;;;;;30.30;9.03;;;;;;;;;;5031128;28;20203;-72
2023/12/09 05:25:29;;;;;;;25.13;7.97;;;;;;;;;;5029441;28;20198;-72
2023/12/09 05:27:54;;;;;;;30.90;8.87;;;;;;;;;;5029609;28;20273;-72
2023/12/09 05:30:20;;;;;;;27.33;8.20;;;;;;;;;;5036166;28;20188;-71
2023/12/09 05:32:45;;;;;;;33.73;8.67;;;;;;;;;;5036740;28;20233;-72
2023/12/09 05:35:11;;;;;;;33.80;9.53;;;;;;;;;;5016245;28;20194;-73
2023/12/09 05:37:36;;;;;;;35.30;8.53;;;;;;;;;;5028228;28;20205;-72
2023/12/09 05:40:03;;;;;;;33.53;9.97;;;;;;;;;;5027721;28;20689;-73
2023/12/09 05:42:28;;;;;;;24.20;8.20;;;;;;;;;;5029923;28;20265;-72
2023/12/09 05:44:54;;;;;;;30.50;8.03;;;;;;;;;;5028964;28;20269;-72
2023/12/09 05:47:19;;;;;;;32.87;8.63;;;;;;;;;;5031156;28;20713;-72
2023/12/09 05:49:45;;;;;;;32.97;9.23;;;;;;;;;;5029433;28;20190;-72
2023/12/09 05:52:10;;;;;;;29.60;8.73;;;;;;;;;;5028504;28;20216;-72
2023/12/09 05:54:39;;;;;;;36.23;9.67;;;;;;;;;;5031332;28;25496;-73
2023/12/09 05:57:04;;;;;;;30.87;8.23;;;;;;;;;;5038843;28;20588;-72
2023/12/09 05:59:29;;;;;;;26.97;8.07;;;;;;;;;;5032704;28;20225;-72
2023/12/09 06:01:56;;;;;;;32.40;8.63;;;;;;;;;;5033323;28;20202;-73
2023/12/09 06:04:21;;;;;;;25.63;8.30;;;;;;;;;;5026543;28;20222;-73
2023/12/09 06:06:47;;;;;;;31.93;8.07;;;;;;;;;;5026869;28;20218;-72
2023/12/09 06:09:12;;;;;;;29.23;7.63;;;;;;;;;;5031837;28;20297;-72
2023/12/09 06:11:38;;;;;;;29.00;8.07;;;;;;;;;;5032206;28;20200;-73
2023/12/09 06:14:03;;;;;;;27.70;7.07;;;;;;;;;;5040174;28;20323;-72
2023/12/09 06:16:29;;;;;;;29.70;7.60;;;;;;;;;;5027952;28;20705;-73
2023/12/09 06:18:54;;;;;;;28.20;7.63;;;;;;;;;;5034470;28;20216;-73
2023/12/09 06:21:24;;;;;;;26.97;7.17;;;;;;;;;;5038813;28;20200;-73
2023/12/09 06:23:51;;;;;;;29.63;7.60;;;;;;;;;;5036198;28;20186;-73
2023/12/09 06:26:17;;;;;;;27.60;7.50;;;;;;;;;;5034016;28;20197;-73
2023/12/09 06:28:42;;;;;;;28.90;6.90;;;;;;;;;;5024535;28;20194;-73
2023/12/09 06:31:10;;;;;;;24.70;6.80;;;;;;;;;;5027118;28;20190;-73
2023/12/09 06:33:35;;;;;;;31.00;8.00;;;;;;;;;;5021313;28;20685;-73
2023/12/09 06:36:01;;;;;;;26.37;6.63;;;;;;;;;;5031603;28;20194;-72
2023/12/09 06:38:27;;;;;;;32.80;8.67;;;;;;;;;;5031566;28;20248;-73
2023/12/09 06:40:52;;;;;;;25.40;6.17;;;;;;;;;;5030708;28;20186;-73
2023/12/09 06:43:18;;;;;;;25.53;7.33;;;;;;;;;;5021948;28;20489;-72
2023/12/09 06:45:43;;;;;;;30.40;6.97;;;;;;;;;;5038745;28;20397;-73
2023/12/09 06:48:08;;;;;;;25.80;6.83;;;;;;;;;;5015573;28;20182;-73
2023/12/09 06:50:34;;;;;;;24.47;6.10;;;;;;;;;;5027536;28;20228;-73
2023/12/09 06:53:00;;;;;;;25.70;7.10;;;;;;;;;;5031880;28;20246;-73
2023/12/09 06:55:26;;;;;;;33.53;6.67;;;;;;;;;;5030927;28;20201;-73
2023/12/09 06:57:51;;;;;;;29.40;7.07;;;;;;;;;;5018845;28;20688;-74
2023/12/09 07:00:17;;;;;;;25.00;6.77;;;;;;;;;;5021193;28;20205;-73
2023/12/09 07:02:43;;;;;;;27.33;6.27;;;;;;;;;;5027375;28;20181;-73
2023/12/09 07:05:13;;;;;;;29.50;6.63;;;;;;;;;;5028203;28;20189;-73
2023/12/09 07:07:38;;;;;;;24.80;5.97;;;;;;;;;;5015175;28;20547;-72
2023/12/09 07:10:05;;;;;;;28.00;6.37;;;;;;;;;;5032503;28;20194;-72
2023/12/09 07:12:31;;;;;;;28.93;6.00;;;;;;;;;;5031281;28;20229;-73
2023/12/09 07:14:59;;;;;;;26.83;6.47;;;;;;;;;;5032956;28;20233;-72
2023/12/09 07:17:24;;;;;;;22.77;5.90;;;;;;;;;;5028372;28;20268;-72
2023/12/09 07:19:52;;;;;;;23.17;5.47;;;;;;;;;;5033131;28;20301;-72
2023/12/09 07:22:21;;;;;;;24.53;6.43;;;;;;;;;;5022272;28;20201;-72
2023/12/09 07:24:47;;;;;;;20.53;4.60;;;;;;;;;;5023472;28;20212;-74
2023/12/09 07:27:12;;;;;;;32.73;6.43;;;;;;;;;;5028816;28;20419;-74
2023/12/09 07:29:38;;;;;;;17.43;5.27;;;;;;;;;;5033932;28;20186;-74
2023/12/09 07:32:04;;;;;;;23.47;5.60;;;;;;;;;;5027223;28;20193;-74
2023/12/09 07:34:29;;;;;;;22.37;5.17;;;;;;;;;;5025495;28;20662;-74
2023/12/09 07:36:56;;;;;;;24.50;5.77;;;;;;;;;;5029617;28;20220;-74
2023/12/09 07:39:21;;;;;;;23.20;5.13;;;;;;;;;;5032603;28;20243;-73
2023/12/09 07:41:50;;;;;;;24.20;5.33;;;;;;;;;;5031329;28;20257;-74
2023/12/09 07:44:20;;;;;;;18.23;4.50;;;;;;;;;;5028848;28;20202;-73
2023/12/09 07:46:46;;;;;;;32.60;4.53;;;;;;;;;;5027910;28;20230;-74
2023/12/09 07:49:12;;;;;;;19.63;4.40;;;;;;;;;;5030449;28;20213;-74
2023/12/09 07:51:37;;;;;;;26.73;5.63;;;;;;;;;;5038449;28;20257;-73
2023/12/09 07:54:03;;;;;;;30.30;5.40;;;;;;;;;;5025722;28;20222;-72
2023/12/09 07:56:28;;;;;;;20.63;4.60;;;;;;;;;;5028542;28;20306;-72
2023/12/09 07:58:54;;;;;;;18.90;4.57;;;;;;;;;;5036962;28;20185;-72
2023/12/09 08:01:19;;;;;;;16.53;4.10;;;;;;;;;;5038496;28;20174;-72
2023/12/09 08:03:45;;;;;;;18.87;4.63;;;;;;;;;;5025220;28;20170;-72
2023/12/09 08:06:11;;;;;;;20.57;4.27;;;;;;;;;;5024922;28;20272;-73
2023/12/09 08:08:40;;;;;;;22.43;4.63;;;;;;;;;;5024880;28;20659;-72
2023/12/09 08:11:06;;;;;;;28.17;4.43;;;;;;;;;;5019707;28;20197;-72
2023/12/09 08:13:31;;;;;;;18.50;4.07;;;;;;;;;;5021162;28;20209;-74
2023/12/09 08:15:57;;;;;;;27.17;4.37;;;;;;;;;;5021796;28;20233;-72
2023/12/09 08:18:23;;;;;;;19.70;4.67;;;;;;;;;;5023213;28;20217;-72
2023/12/09 08:20:48;;;;;;;22.67;4.30;;;;;;;;;;5024236;28;20656;-72
2023/12/09 08:23:14;;;;;;;12.50;3.30;;;;;;;;;;5021615;28;20185;-72
2023/12/09 08:25:39;;;;;;;18.83;5.00;;;;;;;;;;5019235;28;20621;-74
2023/12/09 08:28:05;;;;;;;18.20;4.40;;;;;;;;;;5015757;28;20236;-72
2023/12/09 08:30:31;;;;;;;20.00;4.07;;;;;;;;;;5033639;28;20677;-73
2023/12/09 08:32:57;;;;;;;18.03;4.37;;;;;;;;;;5015937;28;20326;-74
2023/12/09 08:35:23;;;;;;;11.03;3.40;;;;;;;;;;5020683;28;20236;-73
2023/12/09 08:37:48;;;;;;;21.27;3.93;;;;;;;;;;5019580;28;20279;-73
2023/12/09 08:40:14;;;;;;;10.87;4.27;;;;;;;;;;5003007;28;20204;-73
2023/12/09 08:42:44;;;;;;;15.57;4.00;;;;;;;;;;5020513;28;20189;-73
2023/12/09 08:45:12;;;;;;;17.27;3.70;;;;;;;;;;5016533;28;20395;-73
2023/12/09 08:47:38;;;;;;;15.93;3.97;;;;;;;;;;5021877;28;20186;-73
2023/12/09 08:50:04;;;;;;;15.35;3.63;;;;;;;;;;5025924;28;20198;-73
2023/12/09 08:52:31;;;;;;;18.08;3.70;;;;;;;;;;5031140;28;20191;-72
2023/12/09 08:54:56;;;;;;;15.13;3.67;;;;;;;;;;5026568;28;20182;-73
2023/12/09 08:57:23;;;;;;;15.37;3.97;;;;;;;;;;5035047;28;20527;-73
2023/12/09 08:59:49;;;;;;;16.23;3.73;;;;;;;;;;5018944;28;20514;-73
2023/12/09 09:02:14;;;;;;;14.43;3.80;;;;;;;;;;5037446;28;20192;-73
2023/12/09 09:04:40;;;;;;;19.03;4.00;;;;;;;;;;5035724;28;20225;-73
2023/12/09 09:07:06;;;;;;;15.57;3.70;;;;;;;;;;5028273;28;20712;-73
2023/12/09 09:09:32;;;;;;;14.45;3.40;;;;;;;;;;5026382;28;20225;-73
2023/12/09 09:11:57;;;;;;;14.67;4.10;;;;;;;;;;5017036;28;20215;-73
2023/12/09 09:14:23;;;;;;;21.20;4.33;;;;;;;;;;5020313;28;20209;-74
2023/12/09 09:16:48;;;;;;;17.93;4.27;;;;;;;;;;5001416;28;20292;-73
2023/12/09 09:19:15;;;;;;;20.63;4.30;;;;;;;;;;5004647;28;20288;-73
2023/12/09 09:21:40;;;;;;;16.57;3.33;;;;;;;;;;5026910;28;20217;-73
2023/12/09 09:24:08;;;;;;;14.13;3.67;;;;;;;;;;5023834;28;20190;-73
2023/12/09 09:26:33;;;;;;;14.70;3.63;;;;;;;;;;5021808;28;20189;-73
2023/12/09 09:29:02;;;;;;;18.70;4.32;;;;;;;;;;5025974;28;20205;-73
2023/12/09 09:31:27;;;;;;;13.63;3.63;;;;;;;;;;5023767;28;20644;-73
2023/12/09 09:33:53;;;;;;;14.93;3.33;;;;;;;;;;5027632;28;20229;-73
2023/12/09 09:36:19;;;;;;;18.63;3.83;;;;;;;;;;5021389;28;20201;-74
2023/12/09 09:38:44;;;;;;;13.53;3.60;;;;;;;;;;5019593;28;20277;-73
2023/12/09 09:41:29;;;;;;;12.60;3.85;;;;;;;;;;5021374;28;20198;-74
2023/12/09 09:44:11;;;;;;;15.20;3.42;;;;;;;;;;5019841;28;20190;-74
2023/12/09 09:46:38;;;;;;;13.77;3.17;;;;;;;;;;5020139;28;20546;-73
2023/12/09 09:49:04;;;;;;;12.50;3.13;;;;;;;;;;5033100;28;20774;-73
2023/12/09 09:51:31;;;;;;;12.37;3.10;;;;;;;;;;5016955;28;20265;-74
2023/12/09 09:54:12;;;;;;;13.20;3.72;;;;;;;;;;5020883;28;20696;-73
2023/12/09 09:56:38;;;;;;;15.13;3.67;;;;;;;;;;5020808;28;20190;-73
2023/12/09 09:59:05;;;;;;;13.48;3.08;;;;;;;;;;5025142;28;20186;-73
2023/12/09 10:01:32;;;;;;;13.87;2.60;;;;;;;;;;5015689;28;20526;-73
2023/12/09 10:03:58;;;;;;;13.30;2.90;;;;;;;;;;5020134;28;20193;-74
2023/12/09 10:06:24;;;;;;;10.30;3.00;;;;;;;;;;5021756;28;20233;-73
2023/12/09 10:08:50;;;;;;;8.40;3.38;;;;;;;;;;5022773;28;20208;-73
2023/12/09 10:11:15;;;;;;;8.40;2.60;;;;;;;;;;5022257;28;20187;-73
2023/12/09 10:13:43;;;;;;;11.55;2.78;;;;;;;;;;5018798;28;20214;-73
2023/12/09 10:16:09;;;;;;;16.08;3.35;;;;;;;;;;5016957;28;20249;-75
2023/12/09 10:18:35;;;;;;;9.98;2.65;;;;;;;;;;5018015;28;20210;-73
2023/12/09 10:21:00;;;;;;;12.50;3.70;;;;;;;;;;5020844;28;20231;-73
2023/12/09 10:23:26;;;;;;;14.18;2.60;;;;;;;;;;5004908;28;20228;-73
2023/12/09 10:25:52;;;;;;;7.47;2.60;;;;;;;;;;5042240;28;20304;-73
2023/12/09 10:28:19;;;;;;;13.23;2.92;;;;;;;;;;5028058;28;20307;-72
2023/12/09 10:30:45;;;;;;;11.15;2.65;;;;;;;;;;5031880;28;20206;-72
2023/12/09 10:33:11;;;;;;;12.55;2.65;;;;;;;;;;5030052;28;20286;-73
2023/12/09 10:35:37;;;;;;;17.85;3.90;;;;;;;;;;5026427;28;20272;-73
2023/12/09 10:38:04;;;;;;;9.73;2.47;;;;;;;;;;5023861;28;20190;-72
2023/12/09 10:40:31;;;;;;;8.48;2.72;;;;;;;;;;5030437;28;20669;-74
2023/12/09 10:42:57;;;;;;;17.20;3.00;;;;;;;;;;5017872;28;20185;-73
2023/12/09 10:45:23;;;;;;;13.90;2.67;;;;;;;;;;5026244;28;20563;-72
2023/12/09 10:47:48;;;;;;;10.85;2.72;;;;;;;;;;5036561;28;20658;-71
2023/12/09 10:50:14;;;;;;;9.00;2.38;;;;;;;;;;5018218;28;20190;-72
2023/12/09 10:52:39;;;;;;;11.15;2.30;;;;;;;;;;5050016;28;20197;-72
2023/12/09 10:55:05;;;;;;;7.85;2.60;;;;;;;;;;5032360;28;20190;-72
2023/12/09 10:57:33;;;;;;;14.38;2.10;;;;;;;;;;5026101;28;20209;-72
2023/12/09 11:00:00;;;;;;;6.85;2.42;;;;;;;;;;5024747;28;20665;-73
2023/12/09 11:02:26;;;;;;;8.77;2.53;;;;;;;;;;5001460;28;20181;-73
2023/12/09 11:04:52;;;;;;;13.45;2.67;;;;;;;;;;5029537;28;20214;-73
2023/12/09 11:07:19;;;;;;;11.75;2.72;;;;;;;;;;5024377;28;20324;-73
2023/12/09 11:09:45;;;;;;;12.63;2.60;;;;;;;;;;5022135;28;20197;-72
2023/12/09 11:12:25;;;;;;;10.30;2.00;;;;;;;;;;5027158;28;20182;-73
2023/12/09 11:14:50;;;;;;;9.70;2.30;;;;;;;;;;5030654;28;20236;-72
2023/12/09 11:17:35;;;;;;;9.40;2.40;;;;;;;;;;5026672;28;20189;-73
2023/12/09 11:20:14;;;;;;;9.90;2.03;;;;;;;;;;5020696;28;20194;-72
2023/12/09 11:22:41;;;;;;;8.13;2.30;;;;;;;;;;5037810;28;20194;-72
2023/12/09 11:25:28;;;;;;;17.60;2.88;;;;;;;;;;5025223;28;20193;-73
2023/12/09 11:27:54;;;;;;;10.32;2.45;;;;;;;;;;5027752;28;20515;-72
2023/12/09 11:30:31;;;;;;;10.77;2.38;;;;;;;;;;5020445;28;20193;-73
2023/12/09 11:32:56;;;;;;;13.07;3.17;;;;;;;;;;5024171;28;20443;-73
2023/12/09 11:35:24;;;;;;;9.18;2.25;;;;;;;;;;5034064;28;20194;-73
2023/12/09 11:37:50;;;;;;;9.55;2.00;;;;;;;;;;5024129;28;20657;-73
2023/12/09 11:40:15;;;;;;;13.20;2.22;;;;;;;;;;5028370;28;20197;-73
2023/12/09 11:42:41;;;;;;;10.50;2.00;;;;;;;;;;5034339;28;20281;-73
2023/12/09 11:45:08;;;;;;;8.98;1.92;;;;;;;;;;5030804;28;20197;-73
2023/12/09 11:47:36;;;;;;;8.00;2.10;;;;;;;;;;5026681;28;20201;-73
2023/12/09 11:50:02;;;;;;;10.27;1.90;;;;;;;;;;5030444;28;20275;-73
2023/12/09 11:52:29;;;;;;;11.82;2.40;;;;;;;;;;5020290;28;20210;-73
2023/12/09 11:55:02;;;;;;;10.93;2.03;;;;;;;;;;5013704;28;20194;-74
2023/12/09 11:57:29;;;;;;;8.27;1.77;;;;;;;;;;5030935;28;20530;-73
2023/12/09 11:59:55;;;;;;;13.30;2.38;;;;;;;;;;5034271;28;20524;-73
2023/12/09 12:02:20;;;;;;;8.35;1.80;;;;;;;;;;5026022;28;20190;-73
2023/12/09 12:04:46;;;;;;;13.82;1.90;;;;;;;;;;5026033;28;20194;-74
2023/12/09 12:07:11;;;;;;;10.88;2.38;;;;;;;;;;5029545;28;20587;-73
2023/12/09 12:09:38;;;;;;;11.25;2.20;;;;;;;;;;5029788;28;20533;-73
2023/12/09 12:12:05;;;;;;;8.45;2.10;;;;;;;;;;5022929;28;20601;-73
2023/12/09 12:14:31;;;;;;;11.75;1.67;;;;;;;;;;5027595;28;20267;-74
2023/12/09 12:17:00;;;;;;;8.63;2.38;;;;;;;;;;5030149;28;20235;-73
2023/12/09 12:19:26;;;;;;;10.30;3.05;;;;;;;;;;5032790;28;20296;-73
2023/12/09 12:21:53;;;;;;;11.93;2.28;;;;;;;;;;5027133;28;20277;-72
2023/12/09 12:24:18;;;;;;;9.93;1.95;;;;;;;;;;5024937;28;20244;-73
2023/12/09 12:26:44;;;;;;;9.50;1.83;;;;;;;;;;5004380;28;20181;-72
2023/12/09 12:29:09;;;;;;;9.57;1.92;;;;;;;;;;5027702;28;20309;-73
2023/12/09 12:31:35;;;;;;;11.50;2.35;;;;;;;;;;5025468;28;20192;-72
2023/12/09 12:34:22;;;;;;;13.05;2.80;;;;;;;;;;5024445;28;20522;-73
2023/12/09 12:36:48;;;;;;;8.60;1.90;;;;;;;;;;5009302;28;20283;-72
2023/12/09 12:39:15;;;;;;;8.75;2.25;;;;;;;;;;5027903;28;20247;-74
2023/12/09 12:41:44;;;;;;;7.93;2.17;;;;;;;;;;4438276;28;10001824;-72
2023/12/09 12:44:11;;;;;;;8.98;1.95;;;;;;;;;;5026249;28;20221;-74
2023/12/09 12:46:36;;;;;;;13.52;3.22;;;;;;;;;;5024936;28;20197;-72
2023/12/09 12:49:03;;;;;;;11.52;2.50;;;;;;;;;;5026906;28;20540;-72
2023/12/09 12:51:29;;;;;;;10.05;2.30;;;;;;;;;;5037376;28;20343;-73
2023/12/09 12:53:54;;;;;;;9.68;2.13;;;;;;;;;;5008686;28;20744;-73
2023/12/09 12:56:20;;;;;;;18.88;2.75;;;;;;;;;;5023692;28;20206;-73
2023/12/09 12:58:45;;;;;;;9.50;2.00;;;;;;;;;;5028172;28;20297;-74
2023/12/09 13:01:11;;;;;;;15.35;2.25;;;;;;;;;;5022433;28;20212;-73
2023/12/09 13:03:37;;;;;;;10.60;1.90;;;;;;;;;;5013487;28;20182;-73
2023/12/09 13:06:04;;;;;;;5.45;1.70;;;;;;;;;;5022733;28;20205;-73
2023/12/09 13:08:30;;;;;;;23.20;3.05;;;;;;;;;;5027109;28;20265;-74
2023/12/09 13:10:55;;;;;;;17.88;2.88;;;;;;;;;;5027683;28;20327;-73
2023/12/09 13:13:21;;;;;;;18.38;3.35;;;;;;;;;;5027448;28;20206;-73
2023/12/09 13:15:46;;;;;;;10.07;2.08;;;;;;;;;;5034586;28;20636;-74
2023/12/09 13:18:12;;;;;;;13.27;2.20;;;;;;;;;;5023337;28;20215;-73
2023/12/09 13:20:45;;;;;;;15.23;3.05;;;;;;;;;;5026599;28;20204;-73
2023/12/09 13:23:11;;;;;;;8.43;2.03;;;;;;;;;;5022163;28;20514;-73
2023/12/09 13:25:36;;;;;;;13.00;4.88;;;;;;;;;;5005503;28;20196;-73
2023/12/09 13:28:03;;;;;;;9.52;1.75;;;;;;;;;;5019251;28;20262;-73
2023/12/09 13:30:29;;;;;;;10.73;1.70;;;;;;;;;;5025476;28;20594;-73
2023/12/09 13:33:00;;;;;;;10.20;1.90;;;;;;;;;;5016098;28;20314;-73
2023/12/09 13:35:28;;;;;;;12.57;3.65;;;;;;;;;;5025303;28;20229;-73
2023/12/09 13:37:57;;;;;;;9.80;2.55;;;;;;;;;;5017981;28;20248;-73
2023/12/09 13:40:23;;;;;;;7.30;1.83;;;;;;;;;;5023695;28;20193;-73
2023/12/09 13:42:50;;;;;;;14.18;3.60;;;;;;;;;;5016991;28;20330;-73
2023/12/09 13:45:21;;;;;;;11.27;2.25;;;;;;;;;;5020295;28;20197;-73
2023/12/09 13:47:46;;;;;;;13.32;2.10;;;;;;;;;;5023852;28;20232;-73
2023/12/09 13:50:12;;;;;;;10.27;2.00;;;;;;;;;;5011335;28;20181;-74
2023/12/09 13:52:38;;;;;;;9.57;1.67;;;;;;;;;;5028584;28;20627;-73
2023/12/09 13:55:04;;;;;;;10.40;2.42;;;;;;;;;;5006915;28;20186;-73
2023/12/09 13:57:31;;;;;;;8.85;1.75;;;;;;;;;;5021213;28;20289;-75
2023/12/09 13:59:57;;;;;;;10.98;1.92;;;;;;;;;;5017924;28;20226;-74
2023/12/09 14:02:23;;;;;;;13.90;2.97;;;;;;;;;;5021963;28;20658;-74
2023/12/09 14:04:49;;;;;;;10.35;1.70;;;;;;;;;;5025693;28;20194;-74
2023/12/09 14:07:15;;;;;;;14.13;1.95;;;;;;;;;;5008220;28;20182;-74
2023/12/09 14:09:41;;;;;;;7.22;1.45;;;;;;;;;;5024835;28;20259;-73
2023/12/09 14:12:07;;;;;;;15.93;2.20;;;;;;;;;;5032328;28;20199;-76
2023/12/09 14:14:32;;;;;;;11.05;1.90;;;;;;;;;;5022236;28;20821;-74
2023/12/09 14:16:58;;;;;;;16.98;2.60;;;;;;;;;;5025582;28;20190;-74
2023/12/09 14:19:24;;;;;;;9.63;2.08;;;;;;;;;;5004802;28;20733;-73
2023/12/09 14:21:50;;;;;;;11.20;2.22;;;;;;;;;;5023552;28;20204;-75